sensor_id;sensor_type;location;lat;lon;timestamp;pressure;altitude;pressure_sealevel;temperature;humidity
7376;BME280;3728;42.266;24.944;2023-02-11T00:01:25;101471.53;;;-3.02;75.27
7376;BME280;3728;42.266;24.944;2023-02-11T00:03:55;101476.03;;;-3.20;75.61
7376;BME280;3728;42.266;24.944;2023-02-11T00:06:25;101479.25;;;-3.34;75.96
7376;BME280;3728;42.266;24.944;2023-02-11T00:08:54;101482.44;;;-3.49;76.38
7376;BME280;3728;42.266;24.944;2023-02-11T00:11:23;101485.19;;;-3.58;77.26
7376;BME280;3728;42.266;24.944;2023-02-11T00:13:56;101481.81;;;-3.59;77.12
7376;BME280;3728;42.266;24.944;2023-02-11T00:16:25;101486.28;;;-3.44;77.25
7376;BME280;3728;42.266;24.944;2023-02-11T00:18:54;101482.59;;;-3.50;76.87
7376;BME280;3728;42.266;24.944;2023-02-11T00:21:23;101478.44;;;-3.59;77.27
7376;BME280;3728;42.266;24.944;2023-02-11T00:23:51;101478.28;;;-3.50;77.00
7376;BME280;3728;42.266;24.944;2023-02-11T00:26:26;101487.25;;;-3.46;76.92
7376;BME280;3728;42.266;24.944;2023-02-11T00:28:55;101475.06;;;-3.43;77.14
7376;BME280;3728;42.266;24.944;2023-02-11T00:31:24;101479.88;;;-3.32;77.75
7376;BME280;3728;42.266;24.944;2023-02-11T00:33:53;101480.03;;;-3.34;77.50
7376;BME280;3728;42.266;24.944;2023-02-11T00:36:26;101478.13;;;-3.40;77.14
7376;BME280;3728;42.266;24.944;2023-02-11T00:38:55;101482.13;;;-3.37;76.60
7376;BME280;3728;42.266;24.944;2023-02-11T00:41:24;101475.06;;;-3.43;77.13
7376;BME280;3728;42.266;24.944;2023-02-11T00:43:51;101470.75;;;-3.43;77.04
7376;BME280;3728;42.266;24.944;2023-02-11T00:46:20;101476.38;;;-3.48;76.98
7376;BME280;3728;42.266;24.944;2023-02-11T00:48:48;101475.88;;;-3.43;77.39
7376;BME280;3728;42.266;24.944;2023-02-11T00:51:20;101482.78;;;-3.52;77.41
7376;BME280;3728;42.266;24.944;2023-02-11T00:53:47;101475.72;;;-3.66;77.39
7376;BME280;3728;42.266;24.944;2023-02-11T00:56:15;101472.53;;;-3.68;78.58
7376;BME280;3728;42.266;24.944;2023-02-11T00:58:43;101471.56;;;-3.67;78.52
7376;BME280;3728;42.266;24.944;2023-02-11T01:01:13;101476.84;;;-3.68;78.25
7376;BME280;3728;42.266;24.944;2023-02-11T01:03:41;101475.38;;;-3.79;78.53
7376;BME280;3728;42.266;24.944;2023-02-11T01:06:09;101474.91;;;-3.74;79.29
7376;BME280;3728;42.266;24.944;2023-02-11T01:08:38;101465.94;;;-3.62;78.81
7376;BME280;3728;42.266;24.944;2023-02-11T01:11:12;101465.47;;;-3.74;79.98
7376;BME280;3728;42.266;24.944;2023-02-11T01:13:44;101460.66;;;-3.85;79.83
7376;BME280;3728;42.266;24.944;2023-02-11T01:16:12;101467.38;;;-3.76;80.76
7376;BME280;3728;42.266;24.944;2023-02-11T01:18:41;101463.38;;;-3.78;80.62
7376;BME280;3728;42.266;24.944;2023-02-11T01:21:10;101457.94;;;-3.83;80.47
7376;BME280;3728;42.266;24.944;2023-02-11T01:23:37;101460.34;;;-3.74;80.21
7376;BME280;3728;42.266;24.944;2023-02-11T01:26:05;101455.25;;;-3.66;78.95
7376;BME280;3728;42.266;24.944;2023-02-11T01:28:33;101460.03;;;-3.71;79.29
7376;BME280;3728;42.266;24.944;2023-02-11T01:31:01;101451.56;;;-3.79;79.73
7376;BME280;3728;42.266;24.944;2023-02-11T01:33:34;101445.31;;;-3.85;80.57
7376;BME280;3728;42.266;24.944;2023-02-11T01:36:03;101448.03;;;-3.70;80.50
7376;BME280;3728;42.266;24.944;2023-02-11T01:38:32;101456.53;;;-3.62;80.50
7376;BME280;3728;42.266;24.944;2023-02-11T01:41:03;101453.66;;;-3.59;79.89
7376;BME280;3728;42.266;24.944;2023-02-11T01:43:39;101449.63;;;-3.69;79.44
7376;BME280;3728;42.266;24.944;2023-02-11T01:46:30;101448.19;;;-3.72;79.90
7376;BME280;3728;42.266;24.944;2023-02-11T01:49:12;101450.75;;;-3.72;79.53
7376;BME280;3728;42.266;24.944;2023-02-11T01:54:25;101449.16;;;-3.73;78.36
7376;BME280;3728;42.266;24.944;2023-02-11T01:57:15;101439.72;;;-3.72;79.18
7376;BME280;3728;42.266;24.944;2023-02-11T02:02:57;101442.25;;;-3.88;79.16
7376;BME280;3728;42.266;24.944;2023-02-11T02:05:53;101438.78;;;-3.79;79.06
7376;BME280;3728;42.266;24.944;2023-02-11T02:08:43;101441.00;;;-3.76;79.40
7376;BME280;3728;42.266;24.944;2023-02-11T02:11:16;101444.84;;;-3.72;78.56
7376;BME280;3728;42.266;24.944;2023-02-11T02:13:43;101447.72;;;-3.59;78.69
7376;BME280;3728;42.266;24.944;2023-02-11T02:16:13;101446.94;;;-3.68;78.81
7376;BME280;3728;42.266;24.944;2023-02-11T02:33:17;101438.09;;;-4.05;80.09
7376;BME280;3728;42.266;24.944;2023-02-11T02:39:09;101448.34;;;-3.89;79.99
7376;BME280;3728;42.266;24.944;2023-02-11T02:41:41;101454.38;;;-4.06;79.71
7376;BME280;3728;42.266;24.944;2023-02-11T02:44:09;101445.47;;;-3.94;80.09
7376;BME280;3728;42.266;24.944;2023-02-11T02:46:37;101442.88;;;-4.02;79.62
7376;BME280;3728;42.266;24.944;2023-02-11T02:49:08;101443.06;;;-3.96;79.99
7376;BME280;3728;42.266;24.944;2023-02-11T02:55:11;101447.84;;;-3.93;79.31
7376;BME280;3728;42.266;24.944;2023-02-11T03:04:06;101448.81;;;-3.94;77.22
7376;BME280;3728;42.266;24.944;2023-02-11T03:06:54;101443.03;;;-4.12;79.23
7376;BME280;3728;42.266;24.944;2023-02-11T03:09:39;101436.00;;;-4.10;78.67
7376;BME280;3728;42.266;24.944;2023-02-11T03:12:32;101427.50;;;-4.27;80.59
7376;BME280;3728;42.266;24.944;2023-02-11T03:15:04;101444.28;;;-4.24;80.46
7376;BME280;3728;42.266;24.944;2023-02-11T03:17:34;101449.06;;;-4.21;80.33
7376;BME280;3728;42.266;24.944;2023-02-11T03:20:06;101449.06;;;-4.21;79.84
7376;BME280;3728;42.266;24.944;2023-02-11T03:22:49;101440.75;;;-4.31;79.71
7376;BME280;3728;42.266;24.944;2023-02-11T03:25:34;101446.84;;;-4.24;80.17
7376;BME280;3728;42.266;24.944;2023-02-11T03:28:15;101441.56;;;-4.23;80.61
7376;BME280;3728;42.266;24.944;2023-02-11T03:31:04;101452.09;;;-4.26;80.78
7376;BME280;3728;42.266;24.944;2023-02-11T03:36:22;101449.72;;;-4.27;79.46
7376;BME280;3728;42.266;24.944;2023-02-11T03:39:18;101439.41;;;-4.51;80.43
7376;BME280;3728;42.266;24.944;2023-02-11T03:41:48;101447.72;;;-4.57;80.84
7376;BME280;3728;42.266;24.944;2023-02-11T03:44:18;101435.56;;;-4.55;81.02
7376;BME280;3728;42.266;24.944;2023-02-11T03:46:49;101441.03;;;-4.42;80.68
7376;BME280;3728;42.266;24.944;2023-02-11T03:49:19;101437.69;;;-4.35;81.48
7376;BME280;3728;42.266;24.944;2023-02-11T03:51:50;101440.72;;;-4.39;81.41
7376;BME280;3728;42.266;24.944;2023-02-11T03:54:23;101438.75;;;-4.53;81.06
7376;BME280;3728;42.266;24.944;2023-02-11T03:56:57;101435.28;;;-4.44;81.78
7376;BME280;3728;42.266;24.944;2023-02-11T03:59:27;101436.41;;;-4.39;81.03
7376;BME280;3728;42.266;24.944;2023-02-11T04:01:55;101442.66;;;-4.33;80.19
7376;BME280;3728;42.266;24.944;2023-02-11T04:04:25;101432.97;;;-4.05;79.31
7376;BME280;3728;42.266;24.944;2023-02-11T04:06:52;101428.00;;;-4.15;79.38
7376;BME280;3728;42.266;24.944;2023-02-11T04:09:20;101431.19;;;-4.29;79.53
7376;BME280;3728;42.266;24.944;2023-02-11T04:11:47;101435.03;;;-4.17;78.90
7376;BME280;3728;42.266;24.944;2023-02-11T04:14:15;101427.81;;;-4.30;79.75
7376;BME280;3728;42.266;24.944;2023-02-11T04:16:42;101427.34;;;-4.25;79.43
7376;BME280;3728;42.266;24.944;2023-02-11T04:19:09;101437.41;;;-4.32;79.51
7376;BME280;3728;42.266;24.944;2023-02-11T04:21:37;101435.91;;;-4.42;78.90
7376;BME280;3728;42.266;24.944;2023-02-11T04:24:04;101434.41;;;-4.61;80.22
7376;BME280;3728;42.266;24.944;2023-02-11T04:26:32;101436.38;;;-4.55;80.17
7376;BME280;3728;42.266;24.944;2023-02-11T04:28:59;101432.75;;;-4.36;80.14
7376;BME280;3728;42.266;24.944;2023-02-11T04:31:27;101424.97;;;-4.68;79.55
7376;BME280;3728;42.266;24.944;2023-02-11T04:33:55;101423.59;;;-4.47;79.58
7376;BME280;3728;42.266;24.944;2023-02-11T04:36:23;101418.59;;;-4.64;80.27
7376;BME280;3728;42.266;24.944;2023-02-11T04:38:50;101423.97;;;-4.75;80.69
7376;BME280;3728;42.266;24.944;2023-02-11T04:41:17;101421.09;;;-4.80;81.43
7376;BME280;3728;42.266;24.944;2023-02-11T04:43:45;101415.41;;;-5.00;81.09
7376;BME280;3728;42.266;24.944;2023-02-11T04:46:13;101417.50;;;-4.96;81.90
7376;BME280;3728;42.266;24.944;2023-02-11T04:48:40;101420.25;;;-4.89;81.28
7376;BME280;3728;42.266;24.944;2023-02-11T04:51:08;101413.28;;;-4.79;80.99
7376;BME280;3728;42.266;24.944;2023-02-11T04:53:35;101417.03;;;-4.91;80.31
7376;BME280;3728;42.266;24.944;2023-02-11T04:56:03;101421.72;;;-5.12;80.54
7376;BME280;3728;42.266;24.944;2023-02-11T04:58:31;101420.53;;;-4.92;79.77
7376;BME280;3728;42.266;24.944;2023-02-11T05:01:09;101419.00;;;-5.11;79.81
7376;BME280;3728;42.266;24.944;2023-02-11T05:03:38;101430.44;;;-5.23;80.30
7376;BME280;3728;42.266;24.944;2023-02-11T05:06:06;101433.53;;;-5.37;80.86
7376;BME280;3728;42.266;24.944;2023-02-11T05:08:35;101436.34;;;-5.22;81.14
7376;BME280;3728;42.266;24.944;2023-02-11T05:11:02;101436.34;;;-5.22;81.25
7376;BME280;3728;42.266;24.944;2023-02-11T05:13:30;101432.28;;;-5.07;81.37
7376;BME280;3728;42.266;24.944;2023-02-11T05:15:58;101427.56;;;-5.28;81.63
7376;BME280;3728;42.266;24.944;2023-02-11T05:18:26;101428.38;;;-5.45;82.30
7376;BME280;3728;42.266;24.944;2023-02-11T05:20:53;101430.28;;;-5.21;82.71
7376;BME280;3728;42.266;24.944;2023-02-11T05:23:24;101424.63;;;-5.07;82.13
7376;BME280;3728;42.266;24.944;2023-02-11T05:25:51;101422.50;;;-4.86;80.72
7376;BME280;3728;42.266;24.944;2023-02-11T05:28:19;101428.19;;;-4.66;79.29
7376;BME280;3728;42.266;24.944;2023-02-11T05:30:46;101421.91;;;-4.72;79.01
7376;BME280;3728;42.266;24.944;2023-02-11T05:33:14;101417.38;;;-4.86;79.79
7376;BME280;3728;42.266;24.944;2023-02-11T05:35:41;101414.72;;;-4.76;80.20
7376;BME280;3728;42.266;24.944;2023-02-11T05:38:09;101412.56;;;-4.89;80.47
7376;BME280;3728;42.266;24.944;2023-02-11T05:40:37;101418.41;;;-4.71;81.22
7376;BME280;3728;42.266;24.944;2023-02-11T05:43:04;101420.16;;;-4.71;80.59
7376;BME280;3728;42.266;24.944;2023-02-11T05:45:32;101426.78;;;-4.45;79.55
7376;BME280;3728;42.266;24.944;2023-02-11T05:48:00;101429.25;;;-4.27;77.85
7376;BME280;3728;42.266;24.944;2023-02-11T05:50:27;101434.13;;;-4.50;77.49
7376;BME280;3728;42.266;24.944;2023-02-11T05:52:55;101425.94;;;-4.61;77.07
7376;BME280;3728;42.266;24.944;2023-02-11T05:55:22;101431.34;;;-4.72;77.24
7376;BME280;3728;42.266;24.944;2023-02-11T05:57:50;101442.59;;;-4.91;78.62
7376;BME280;3728;42.266;24.944;2023-02-11T06:00:17;101443.53;;;-4.92;78.85
7376;BME280;3728;42.266;24.944;2023-02-11T06:02:45;101448.69;;;-4.50;78.43
7376;BME280;3728;42.266;24.944;2023-02-11T06:05:13;101447.13;;;-4.35;77.47
7376;BME280;3728;42.266;24.944;2023-02-11T06:07:40;101438.47;;;-4.50;77.92
7376;BME280;3728;42.266;24.944;2023-02-11T06:10:08;101433.34;;;-4.50;78.17
7376;BME280;3728;42.266;24.944;2023-02-11T06:12:37;101440.44;;;-4.36;79.02
7376;BME280;3728;42.266;24.944;2023-02-11T06:15:06;101447.16;;;-4.19;78.84
7376;BME280;3728;42.266;24.944;2023-02-11T06:17:34;101437.59;;;-4.09;77.60
7376;BME280;3728;42.266;24.944;2023-02-11T06:20:05;101447.84;;;-4.17;77.85
7376;BME280;3728;42.266;24.944;2023-02-11T06:22:34;101447.16;;;-4.27;78.65
7376;BME280;3728;42.266;24.944;2023-02-11T06:25:02;101448.31;;;-3.97;78.27
7376;BME280;3728;42.266;24.944;2023-02-11T06:27:29;101446.56;;;-3.97;78.40
7376;BME280;3728;42.266;24.944;2023-02-11T06:29:57;101443.06;;;-3.88;78.31
7376;BME280;3728;42.266;24.944;2023-02-11T06:32:26;101445.31;;;-3.85;78.61
7376;BME280;3728;42.266;24.944;2023-02-11T06:35:12;101451.25;;;-3.68;78.23
7376;BME280;3728;42.266;24.944;2023-02-11T06:37:40;101449.63;;;-3.69;77.58
7376;BME280;3728;42.266;24.944;2023-02-11T06:40:10;101451.41;;;-3.37;76.68
7376;BME280;3728;42.266;24.944;2023-02-11T06:42:37;101437.94;;;-3.31;76.44
7376;BME280;3728;42.266;24.944;2023-02-11T06:45:07;101437.63;;;-3.28;76.48
7376;BME280;3728;42.266;24.944;2023-02-11T06:47:36;101433.72;;;-3.00;76.55
7376;BME280;3728;42.266;24.944;2023-02-11T06:50:07;101440.72;;;-2.86;75.99
7376;BME280;3728;42.266;24.944;2023-02-11T06:52:39;101434.28;;;-2.82;75.91
7376;BME280;3728;42.266;24.944;2023-02-11T06:55:08;101435.16;;;-2.59;75.83
7376;BME280;3728;42.266;24.944;2023-02-11T06:57:36;101430.00;;;-2.51;75.14
7376;BME280;3728;42.266;24.944;2023-02-11T07:00:04;101437.56;;;-2.27;74.84
7376;BME280;3728;42.266;24.944;2023-02-11T07:02:32;101426.59;;;-2.13;73.43
7376;BME280;3728;42.266;24.944;2023-02-11T07:05:00;101426.69;;;-2.06;74.04
7376;BME280;3728;42.266;24.944;2023-02-11T07:07:29;101426.63;;;-1.75;72.82
7376;BME280;3728;42.266;24.944;2023-02-11T07:10:00;101434.66;;;-1.56;71.47
7376;BME280;3728;42.266;24.944;2023-02-11T07:12:32;101439.09;;;-1.50;71.15
7376;BME280;3728;42.266;24.944;2023-02-11T07:15:04;101438.88;;;-1.40;68.69
7376;BME280;3728;42.266;24.944;2023-02-11T07:17:33;101438.16;;;-1.34;71.00
7376;BME280;3728;42.266;24.944;2023-02-11T07:20:02;101425.84;;;-1.24;70.77
7376;BME280;3728;42.266;24.944;2023-02-11T07:22:30;101433.75;;;-0.96;68.11
7376;BME280;3728;42.266;24.944;2023-02-11T07:24:57;101441.13;;;-0.79;67.10
7376;BME280;3728;42.266;24.944;2023-02-11T07:27:25;101431.78;;;-0.50;64.06
7376;BME280;3728;42.266;24.944;2023-02-11T07:29:53;101427.03;;;-0.47;65.50
7376;BME280;3728;42.266;24.944;2023-02-11T07:32:21;101430.75;;;-0.35;64.36
7376;BME280;3728;42.266;24.944;2023-02-11T07:34:48;101433.19;;;-0.12;61.71
7376;BME280;3728;42.266;24.944;2023-02-11T07:37:16;101431.47;;;-0.26;62.58
7376;BME280;3728;42.266;24.944;2023-02-11T07:39:43;101432.22;;;-0.26;63.61
7376;BME280;3728;42.266;24.944;2023-02-11T07:42:11;101419.63;;;0.22;64.69
7376;BME280;3728;42.266;24.944;2023-02-11T07:44:39;101422.75;;;0.17;65.50
7376;BME280;3728;42.266;24.944;2023-02-11T07:47:06;101425.38;;;0.73;61.76
7376;BME280;3728;42.266;24.944;2023-02-11T07:49:34;101425.31;;;0.66;62.66
7376;BME280;3728;42.266;24.944;2023-02-11T07:52:01;101416.72;;;0.31;63.86
7376;BME280;3728;42.266;24.944;2023-02-11T07:54:29;101405.63;;;0.31;63.60
7376;BME280;3728;42.266;24.944;2023-02-11T07:56:59;101410.66;;;0.39;63.07
7376;BME280;3728;42.266;24.944;2023-02-11T07:59:27;101408.44;;;0.36;65.30
7376;BME280;3728;42.266;24.944;2023-02-11T08:01:56;101412.78;;;0.91;64.86
7376;BME280;3728;42.266;24.944;2023-02-11T08:04:24;101411.31;;;0.75;63.15
7376;BME280;3728;42.266;24.944;2023-02-11T08:06:51;101410.13;;;1.18;63.41
7376;BME280;3728;42.266;24.944;2023-02-11T08:09:24;101398.03;;;1.19;63.58
7376;BME280;3728;42.266;24.944;2023-02-11T08:11:53;101399.66;;;0.86;62.39
7376;BME280;3728;42.266;24.944;2023-02-11T08:14:23;101403.00;;;0.80;64.43
7376;BME280;3728;42.266;24.944;2023-02-11T08:16:52;101400.28;;;1.28;61.81
7376;BME280;3728;42.266;24.944;2023-02-11T08:19:20;101404.16;;;1.59;57.82
7376;BME280;3728;42.266;24.944;2023-02-11T08:21:49;101387.94;;;1.24;62.28
7376;BME280;3728;42.266;24.944;2023-02-11T08:24:16;101405.16;;;1.58;59.96
7376;BME280;3728;42.266;24.944;2023-02-11T08:26:44;101394.41;;;1.67;58.39
7376;BME280;3728;42.266;24.944;2023-02-11T08:29:13;101395.88;;;1.83;57.71
7376;BME280;3728;42.266;24.944;2023-02-11T08:31:44;101394.91;;;2.17;56.19
7376;BME280;3728;42.266;24.944;2023-02-11T08:34:13;101396.91;;;2.21;54.74
7376;BME280;3728;42.266;24.944;2023-02-11T08:36:46;101395.06;;;2.54;54.76
7376;BME280;3728;42.266;24.944;2023-02-11T08:39:19;101394.22;;;2.93;52.95
7376;BME280;3728;42.266;24.944;2023-02-11T08:41:50;101391.41;;;3.01;52.54
7376;BME280;3728;42.266;24.944;2023-02-11T08:44:20;101390.63;;;2.88;52.05
7376;BME280;3728;42.266;24.944;2023-02-11T08:46:50;101389.84;;;2.81;53.98
7376;BME280;3728;42.266;24.944;2023-02-11T08:49:19;101388.69;;;3.72;50.37
7376;BME280;3728;42.266;24.944;2023-02-11T08:51:51;101384.75;;;3.25;52.87
7376;BME280;3728;42.266;24.944;2023-02-11T08:54:21;101392.22;;;3.46;50.61
7376;BME280;3728;42.266;24.944;2023-02-11T08:56:50;101387.91;;;3.71;49.96
7376;BME280;3728;42.266;24.944;2023-02-11T08:59:18;101386.38;;;3.57;49.66
7376;BME280;3728;42.266;24.944;2023-02-11T09:01:47;101398.31;;;3.58;50.47
7376;BME280;3728;42.266;24.944;2023-02-11T09:04:15;101384.53;;;3.64;50.02
7376;BME280;3728;42.266;24.944;2023-02-11T09:06:44;101384.34;;;3.97;49.45
7376;BME280;3728;42.266;24.944;2023-02-11T09:09:15;101379.88;;;4.29;48.11
7376;BME280;3728;42.266;24.944;2023-02-11T09:11:43;101374.56;;;4.24;47.13
7376;BME280;3728;42.266;24.944;2023-02-11T09:14:19;101379.28;;;4.33;45.69
7376;BME280;3728;42.266;24.944;2023-02-11T09:16:48;101378.53;;;4.26;47.55
7376;BME280;3728;42.266;24.944;2023-02-11T09:19:17;101375.19;;;4.62;47.43
7376;BME280;3728;42.266;24.944;2023-02-11T09:21:45;101377.28;;;4.71;47.03
7376;BME280;3728;42.266;24.944;2023-02-11T09:24:13;101369.84;;;5.29;43.10
7376;BME280;3728;42.266;24.944;2023-02-11T09:26:41;101361.78;;;5.19;44.23
7376;BME280;3728;42.266;24.944;2023-02-11T09:29:09;101358.09;;;5.68;42.34
7376;BME280;3728;42.266;24.944;2023-02-11T09:31:37;101361.34;;;5.52;43.16
7376;BME280;3728;42.266;24.944;2023-02-11T09:34:05;101348.72;;;5.08;43.67
7376;BME280;3728;42.266;24.944;2023-02-11T09:36:36;101341.59;;;5.03;45.60
7376;BME280;3728;42.266;24.944;2023-02-11T09:39:11;101344.69;;;5.12;43.81
7376;BME280;3728;42.266;24.944;2023-02-11T09:44:24;101336.94;;;5.53;44.09
7376;BME280;3728;42.266;24.944;2023-02-11T09:46:55;101328.44;;;5.87;43.50
7376;BME280;3728;42.266;24.944;2023-02-11T09:49:38;101329.25;;;5.88;42.02
7376;BME280;3728;42.266;24.944;2023-02-11T09:54:58;101317.03;;;5.88;41.35
7376;BME280;3728;42.266;24.944;2023-02-11T09:57:33;101300.22;;;6.02;40.85
7376;BME280;3728;42.266;24.944;2023-02-11T10:00:36;101305.16;;;6.39;41.54
7376;BME280;3728;42.266;24.944;2023-02-11T10:06:48;101289.09;;;6.42;40.60
7376;BME280;3728;42.266;24.944;2023-02-11T10:15:41;101268.59;;;6.57;40.04
7376;BME280;3728;42.266;24.944;2023-02-11T10:23:59;101247.13;;;7.06;38.33
7376;BME280;3728;42.266;24.944;2023-02-11T10:26:31;101240.22;;;6.72;38.69
7376;BME280;3728;42.266;24.944;2023-02-11T10:29:10;101231.13;;;6.58;36.97
7376;BME280;3728;42.266;24.944;2023-02-11T10:31:47;101234.91;;;6.39;37.99
7376;BME280;3728;42.266;24.944;2023-02-11T10:34:15;101227.28;;;6.49;38.60
7376;BME280;3728;42.266;24.944;2023-02-11T10:36:44;101222.41;;;6.92;38.05
7376;BME280;3728;42.266;24.944;2023-02-11T10:39:18;101226.47;;;6.88;36.90
7376;BME280;3728;42.266;24.944;2023-02-11T10:41:59;101206.69;;;6.87;38.14
7376;BME280;3728;42.266;24.944;2023-02-11T10:44:34;101205.69;;;7.21;38.15
7376;BME280;3728;42.266;24.944;2023-02-11T10:47:27;101199.38;;;7.67;38.24
7376;BME280;3728;42.266;24.944;2023-02-11T10:49:58;101194.56;;;7.97;37.27
7376;BME280;3728;42.266;24.944;2023-02-11T10:52:30;101190.81;;;7.88;36.57
7376;BME280;3728;42.266;24.944;2023-02-11T10:57:42;101174.81;;;7.85;37.45
7376;BME280;3728;42.266;24.944;2023-02-11T11:00:29;101169.53;;;8.40;35.69
7376;BME280;3728;42.266;24.944;2023-02-11T11:05:59;101164.34;;;8.23;35.14
7376;BME280;3728;42.266;24.944;2023-02-11T11:08:49;101157.16;;;8.30;34.50
7376;BME280;3728;42.266;24.944;2023-02-11T11:11:22;101156.00;;;8.43;34.70
7376;BME280;3728;42.266;24.944;2023-02-11T11:21:48;101143.84;;;9.17;33.93
7376;BME280;3728;42.266;24.944;2023-02-11T11:24:39;101137.41;;;9.71;33.05
7376;BME280;3728;42.266;24.944;2023-02-11T11:27:17;101138.31;;;9.97;32.99
7376;BME280;3728;42.266;24.944;2023-02-11T11:29:51;101129.53;;;10.23;31.86
7376;BME280;3728;42.266;24.944;2023-02-11T11:32:30;101129.59;;;10.43;30.88
7376;BME280;3728;42.266;24.944;2023-02-11T11:35:02;101126.97;;;10.48;30.56
7376;BME280;3728;42.266;24.944;2023-02-11T11:37:35;101121.22;;;10.56;30.48
7376;BME280;3728;42.266;24.944;2023-02-11T11:42:42;101104.22;;;10.69;29.75
7376;BME280;3728;42.266;24.944;2023-02-11T11:47:59;101095.56;;;10.98;29.36
7376;BME280;3728;42.266;24.944;2023-02-11T11:50:42;101093.97;;;11.23;28.53
7376;BME280;3728;42.266;24.944;2023-02-11T11:53:23;101086.53;;;11.55;28.67
7376;BME280;3728;42.266;24.944;2023-02-11T11:56:16;101087.56;;;11.69;27.45
7376;BME280;3728;42.266;24.944;2023-02-11T11:58:49;101071.56;;;12.19;27.27
7376;BME280;3728;42.266;24.944;2023-02-11T12:24:32;101046.66;;;14.86;22.91
7376;BME280;3728;42.266;24.944;2023-02-11T12:33:56;101035.13;;;14.95;20.96
7376;BME280;3728;42.266;24.944;2023-02-11T12:40:15;101031.47;;;14.78;21.49
7376;BME280;3728;42.266;24.944;2023-02-11T12:43:24;101031.41;;;14.96;20.58
7376;BME280;3728;42.266;24.944;2023-02-11T12:49:08;101017.19;;;15.88;20.87
7376;BME280;3728;42.266;24.944;2023-02-11T12:54:57;101012.38;;;17.18;19.73
7376;BME280;3728;42.266;24.944;2023-02-11T12:57:43;101014.41;;;17.77;19.43
7376;BME280;3728;42.266;24.944;2023-02-11T13:00:21;101010.84;;;18.16;19.04
7376;BME280;3728;42.266;24.944;2023-02-11T13:05:43;101004.81;;;18.70;18.56
7376;BME280;3728;42.266;24.944;2023-02-11T13:08:37;101006.22;;;19.05;17.85
7376;BME280;3728;42.266;24.944;2023-02-11T13:11:11;101005.38;;;18.93;17.99
7376;BME280;3728;42.266;24.944;2023-02-11T13:24:42;100982.97;;;18.65;18.83
7376;BME280;3728;42.266;24.944;2023-02-11T13:27:54;100987.44;;;19.19;18.18
7376;BME280;3728;42.266;24.944;2023-02-11T13:30:33;100986.34;;;18.82;18.75
7376;BME280;3728;42.266;24.944;2023-02-11T13:33:15;100978.44;;;19.32;18.31
7376;BME280;3728;42.266;24.944;2023-02-11T13:35:48;100976.97;;;19.43;17.95
7376;BME280;3728;42.266;24.944;2023-02-11T13:38:36;100978.09;;;19.42;17.63
7376;BME280;3728;42.266;24.944;2023-02-11T13:41:19;100966.19;;;19.19;17.74
7376;BME280;3728;42.266;24.944;2023-02-11T13:44:02;100970.47;;;19.32;17.51
7376;BME280;3728;42.266;24.944;2023-02-11T13:49:32;100964.06;;;19.95;18.64
7376;BME280;3728;42.266;24.944;2023-02-11T13:52:34;100971.34;;;20.52;17.75
7376;BME280;3728;42.266;24.944;2023-02-11T14:11:52;100938.84;;;20.46;16.61
7376;BME280;3728;42.266;24.944;2023-02-11T14:14:32;100937.31;;;20.81;15.90
7376;BME280;3728;42.266;24.944;2023-02-11T14:19:47;100920.47;;;20.65;16.77
7376;BME280;3728;42.266;24.944;2023-02-11T14:25:17;100928.88;;;21.16;16.25
7376;BME280;3728;42.266;24.944;2023-02-11T14:27:52;100925.50;;;21.70;15.56
7376;BME280;3728;42.266;24.944;2023-02-11T14:34:06;100927.34;;;21.54;16.05
7376;BME280;3728;42.266;24.944;2023-02-11T14:37:05;100916.09;;;21.61;16.23
7376;BME280;3728;42.266;24.944;2023-02-11T14:39:57;100919.06;;;21.71;15.90
7376;BME280;3728;42.266;24.944;2023-02-11T14:42:36;100910.03;;;21.76;16.08
7376;BME280;3728;42.266;24.944;2023-02-11T14:45:07;100916.72;;;21.70;15.53
7376;BME280;3728;42.266;24.944;2023-02-11T14:47:50;100910.69;;;21.85;16.50
7376;BME280;3728;42.266;24.944;2023-02-11T14:53:19;100899.44;;;21.24;16.82
7376;BME280;3728;42.266;24.944;2023-02-11T14:55:53;100899.47;;;20.88;16.61
7376;BME280;3728;42.266;24.944;2023-02-11T14:58:29;100892.78;;;21.18;16.91
7376;BME280;3728;42.266;24.944;2023-02-11T15:01:02;100899.59;;;21.43;16.57
7376;BME280;3728;42.266;24.944;2023-02-11T15:03:33;100890.00;;;21.27;17.56
7376;BME280;3728;42.266;24.944;2023-02-11T15:06:18;100881.84;;;21.07;17.41
7376;BME280;3728;42.266;24.944;2023-02-11T15:09:12;100886.59;;;20.78;17.40
7376;BME280;3728;42.266;24.944;2023-02-11T15:11:55;100879.72;;;20.28;18.19
7376;BME280;3728;42.266;24.944;2023-02-11T15:14:27;100875.66;;;19.65;18.63
7376;BME280;3728;42.266;24.944;2023-02-11T15:17:03;100873.88;;;18.87;19.63
7376;BME280;3728;42.266;24.944;2023-02-11T15:19:44;100873.97;;;18.32;21.07
7376;BME280;3728;42.266;24.944;2023-02-11T15:22:17;100877.97;;;18.00;21.36
7376;BME280;3728;42.266;24.944;2023-02-11T15:25:12;100879.09;;;17.48;22.25
7376;BME280;3728;42.266;24.944;2023-02-11T15:27:49;100869.56;;;17.13;22.67
7376;BME280;3728;42.266;24.944;2023-02-11T15:32:53;100862.97;;;16.06;23.42
7376;BME280;3728;42.266;24.944;2023-02-11T15:35:38;100863.63;;;15.09;23.78
7376;BME280;3728;42.266;24.944;2023-02-11T15:38:10;100860.22;;;13.95;24.76
7376;BME280;3728;42.266;24.944;2023-02-11T15:40:39;100849.28;;;12.76;26.36
7376;BME280;3728;42.266;24.944;2023-02-11T15:43:16;100849.19;;;11.81;27.56
7376;BME280;3728;42.266;24.944;2023-02-11T15:50:56;100825.53;;;10.29;30.49
7376;BME280;3728;42.266;24.944;2023-02-11T15:53:51;100835.25;;;9.74;31.08
7376;BME280;3728;42.266;24.944;2023-02-11T15:56:33;100838.13;;;9.42;31.47
7376;BME280;3728;42.266;24.944;2023-02-11T15:59:34;100832.56;;;9.13;31.48
7376;BME280;3728;42.266;24.944;2023-02-11T16:02:30;100837.91;;;8.76;31.95
7376;BME280;3728;42.266;24.944;2023-02-11T16:05:03;100836.50;;;8.54;32.87
7376;BME280;3728;42.266;24.944;2023-02-11T16:07:48;100821.69;;;8.22;32.63
7376;BME280;3728;42.266;24.944;2023-02-11T16:10:28;100826.44;;;7.94;33.12
7376;BME280;3728;42.266;24.944;2023-02-11T16:15:56;100817.00;;;7.56;35.20
7376;BME280;3728;42.266;24.944;2023-02-11T16:18:42;100815.88;;;7.47;36.01
7376;BME280;3728;42.266;24.944;2023-02-11T16:21:33;100817.84;;;7.35;35.52
7376;BME280;3728;42.266;24.944;2023-02-11T16:24:06;100812.50;;;7.20;36.06
7376;BME280;3728;42.266;24.944;2023-02-11T16:26:51;100804.91;;;7.13;36.58